ePrivacy and GPDR Cookie Consent by Cookie Consent
EmailTwitter


Observations de surface / France / LFBO (07630)

Régions: Québec | Canada | États-Unis | Europe | France | UK | Ailleurs
Station
Affichage
Infos & localisation pour LFBO (07630) | Aide pour décoder les METARs

Observations prises le 2022-12-07 à 16H30 UTC à TOULOUSE/BLAGNAC, FR (LFBO)

Température: 11.0 Celsius

Point de rosée: 5.0 Celsius

Humidité relative: 66%

Vents: Variable à 2 km/h ou 1 noeuds.

Pression au niveau moyen de la mer: 101.20 kilopascals.

Observation METAR:

LFBO 071630Z AUTO VRB01KT CAVOK 11/05 Q1012 BECMG BKN013=